createdAt,value
2017-09-28T00:02:02.385Z,94.30
2017-09-28T00:04:30.656Z,94.40
2017-09-28T00:06:59.127Z,94.50
2017-09-28T00:09:27.657Z,94.50
2017-09-28T00:11:55.118Z,94.40
2017-09-28T00:14:22.774Z,94.60
2017-09-28T00:16:50.446Z,94.40
2017-09-28T00:19:17.933Z,94.50
2017-09-28T00:21:45.593Z,94.50
2017-09-28T00:24:13.079Z,94.30
2017-09-28T00:26:41.536Z,94.80
2017-09-28T00:29:09.187Z,94.70
2017-09-28T00:31:36.719Z,94.60
2017-09-28T00:34:04.221Z,94.70
2017-09-28T00:36:31.732Z,94.70
2017-09-28T00:38:59.226Z,94.80
2017-09-28T00:41:26.721Z,94.80
2017-09-28T00:43:54.209Z,94.80
2017-09-28T00:46:22.108Z,94.80
2017-09-28T00:48:49.770Z,94.80
2017-09-28T00:51:17.250Z,94.70
2017-09-28T00:53:45.488Z,94.80
2017-09-28T00:56:13.327Z,94.70
2017-09-28T00:58:40.794Z,94.70
2017-09-28T01:01:08.302Z,94.90
2017-09-28T01:03:36.656Z,95.40
2017-09-28T01:06:04.799Z,95.10
2017-09-28T01:08:32.281Z,95.10
2017-09-28T01:10:59.967Z,95.20
2017-09-28T01:13:28.266Z,95.30
2017-09-28T01:15:55.736Z,95.10
2017-09-28T01:18:23.574Z,95.00
2017-09-28T01:20:51.814Z,95.10
2017-09-28T01:23:19.310Z,95.10
2017-09-28T01:25:47.673Z,95.20
2017-09-28T01:28:15.140Z,95.10
2017-09-28T01:30:43.458Z,95.20
2017-09-28T01:33:10.966Z,95.20
2017-09-28T01:35:38.511Z,95.20
2017-09-28T01:38:05.973Z,95.20
2017-09-28T01:40:33.827Z,95.10
2017-09-28T01:43:01.660Z,95.20
2017-09-28T01:45:29.215Z,95.20
2017-09-28T01:47:56.705Z,95.30
2017-09-28T01:50:24.239Z,95.40
2017-09-28T01:52:52.032Z,95.70
2017-09-28T01:55:19.505Z,95.60
2017-09-28T01:57:47.913Z,95.50
2017-09-28T02:00:16.183Z,95.50
2017-09-28T02:02:44.499Z,95.50
2017-09-28T02:05:11.960Z,95.50
2017-09-28T02:07:39.466Z,95.40
2017-09-28T02:10:07.754Z,95.50
2017-09-28T02:12:36.749Z,95.40
2017-09-28T02:15:05.045Z,95.40
2017-09-28T02:17:32.559Z,95.40
2017-09-28T02:20:00.029Z,95.40
2017-09-28T02:22:28.510Z,95.40
2017-09-28T02:24:56.746Z,95.40
2017-09-28T02:27:24.269Z,95.40
2017-09-28T02:29:52.561Z,95.50
2017-09-28T02:32:20.065Z,95.30
2017-09-28T02:34:47.538Z,95.30
2017-09-28T02:37:16.006Z,95.20
2017-09-28T02:39:44.979Z,95.10
2017-09-28T02:42:12.453Z,95.10
2017-09-28T02:44:40.324Z,95.20
2017-09-28T02:47:09.339Z,95.20
2017-09-28T02:49:37.558Z,95.30
2017-09-28T02:52:05.308Z,95.30
2017-09-28T02:54:32.787Z,95.20
2017-09-28T02:57:00.287Z,95.20
2017-09-28T02:59:28.525Z,95.30
2017-09-28T03:01:55.997Z,95.30
2017-09-28T03:04:24.237Z,95.60
2017-09-28T03:06:51.842Z,95.40
2017-09-28T03:09:20.085Z,95.50
2017-09-28T03:11:47.888Z,95.20
2017-09-28T03:14:15.461Z,95.20
2017-09-28T03:16:42.960Z,95.30
2017-09-28T03:19:10.613Z,95.20
2017-09-28T03:21:38.095Z,95.20
2017-09-28T03:24:05.578Z,95.20
2017-09-28T03:26:33.854Z,95.10
2017-09-28T03:29:02.717Z,95.20
2017-09-28T03:31:30.198Z,95.20
2017-09-28T03:33:58.749Z,95.20
2017-09-28T03:36:26.220Z,95.20
2017-09-28T03:38:54.274Z,95.20
2017-09-28T03:41:21.982Z,95.20
2017-09-28T03:43:50.221Z,95.20
2017-09-28T03:46:17.839Z,95.20
2017-09-28T03:48:45.364Z,95.30
2017-09-28T03:51:14.070Z,95.30
2017-09-28T03:53:41.590Z,95.30
2017-09-28T03:56:09.454Z,95.30
2017-09-28T03:58:36.977Z,95.30
2017-09-28T04:01:04.483Z,95.30
2017-09-28T04:03:32.150Z,95.30
2017-09-28T04:06:00.570Z,95.60
2017-09-28T04:08:28.969Z,95.30
2017-09-28T04:10:56.712Z,95.50
2017-09-28T04:13:24.236Z,95.20
2017-09-28T04:15:51.805Z,95.20
2017-09-28T04:18:20.515Z,95.20
2017-09-28T04:20:47.983Z,95.20
2017-09-28T04:23:16.268Z,95.20
2017-09-28T04:25:43.798Z,95.10
2017-09-28T04:28:11.273Z,95.10
2017-09-28T04:30:38.746Z,94.90
2017-09-28T04:33:06.781Z,94.80
2017-09-28T04:35:34.246Z,94.80
2017-09-28T04:38:01.703Z,94.80
2017-09-28T04:40:29.345Z,94.80
2017-09-28T04:42:57.638Z,94.80
2017-09-28T04:45:25.112Z,94.80
2017-09-28T04:47:52.714Z,94.70
2017-09-28T04:50:21.009Z,94.60
2017-09-28T04:52:49.247Z,94.70
2017-09-28T04:55:16.924Z,94.70
2017-09-28T04:57:44.390Z,94.80
2017-09-28T05:00:11.882Z,94.80
2017-09-28T05:02:39.538Z,94.70
2017-09-28T05:05:07.035Z,94.80
2017-09-28T05:07:34.500Z,94.90
2017-09-28T05:10:01.998Z,95.00
2017-09-28T05:12:30.742Z,94.90
2017-09-28T05:14:58.239Z,94.90
2017-09-28T05:17:26.501Z,94.90
2017-09-28T05:19:54.060Z,94.90
2017-09-28T05:22:21.557Z,94.90
2017-09-28T05:24:49.404Z,94.90
2017-09-28T05:27:17.762Z,95.00
2017-09-28T05:29:45.229Z,95.00
2017-09-28T05:32:13.853Z,95.10
2017-09-28T05:34:41.686Z,95.10
2017-09-28T05:37:10.068Z,95.20
2017-09-28T05:39:38.678Z,95.10
2017-09-28T05:42:06.168Z,95.10
2017-09-28T05:44:33.678Z,95.10
2017-09-28T05:47:01.417Z,95.10
2017-09-28T05:49:29.683Z,95.10
2017-09-28T05:51:57.246Z,95.10
2017-09-28T05:54:24.782Z,95.10
2017-09-28T05:56:52.309Z,95.10
2017-09-28T05:59:19.768Z,95.10
2017-09-28T06:01:47.496Z,95.00
2017-09-28T06:04:14.998Z,95.00
2017-09-28T06:06:42.464Z,94.90
2017-09-28T06:09:10.259Z,94.90
2017-09-28T06:11:37.791Z,94.70
2017-09-28T06:14:05.286Z,94.90
2017-09-28T06:16:32.978Z,94.50
2017-09-28T06:19:00.447Z,94.60
2017-09-28T06:21:28.173Z,94.40
2017-09-28T06:23:56.449Z,94.30
2017-09-28T06:26:24.042Z,94.20
2017-09-28T06:28:51.766Z,94.20
2017-09-28T06:31:20.023Z,93.80
2017-09-28T06:33:47.662Z,93.80
2017-09-28T06:36:16.059Z,93.80
2017-09-28T06:38:43.640Z,93.80
2017-09-28T06:41:11.183Z,93.90
2017-09-28T06:43:38.947Z,93.90
2017-09-28T06:46:06.433Z,94.10
2017-09-28T06:48:35.004Z,94.30
2017-09-28T06:51:02.679Z,94.50
2017-09-28T06:53:30.950Z,94.60
2017-09-28T06:55:59.174Z,94.60
2017-09-28T06:58:26.708Z,94.50
2017-09-28T07:00:54.212Z,94.50
2017-09-28T07:03:21.676Z,94.50
2017-09-28T07:05:49.369Z,94.60
2017-09-28T07:08:17.621Z,94.60
2017-09-28T07:10:45.232Z,94.60
2017-09-28T07:13:12.955Z,94.60
2017-09-28T07:15:41.231Z,94.30
2017-09-28T07:18:09.508Z,94.30
2017-09-28T07:20:38.569Z,93.90
2017-09-28T07:23:06.053Z,94.10
2017-09-28T07:25:33.672Z,93.90
2017-09-28T07:28:01.697Z,93.90
2017-09-28T07:30:30.073Z,93.80
2017-09-28T07:32:58.329Z,93.40
2017-09-28T07:35:25.907Z,93.40
2017-09-28T07:37:54.226Z,93.40
2017-09-28T07:40:21.731Z,93.40
2017-09-28T07:42:49.435Z,93.60
2017-09-28T07:45:16.964Z,93.00
2017-09-28T07:47:45.229Z,92.70
2017-09-28T07:50:12.865Z,92.70
2017-09-28T07:52:40.402Z,92.90
2017-09-28T07:55:07.977Z,92.90
2017-09-28T07:57:35.566Z,92.40
2017-09-28T08:00:03.044Z,92.60
2017-09-28T08:02:31.270Z,92.50
2017-09-28T08:04:59.010Z,92.50
2017-09-28T08:07:26.493Z,91.80
2017-09-28T08:09:53.983Z,92.10
2017-09-28T08:12:22.471Z,91.80
2017-09-28T08:14:50.742Z,91.90
2017-09-28T08:17:19.018Z,91.20
2017-09-28T08:19:47.857Z,91.40
2017-09-28T08:22:15.483Z,91.40
2017-09-28T08:24:42.987Z,91.40
2017-09-28T08:27:10.645Z,91.40
2017-09-28T08:29:38.114Z,91.30
2017-09-28T08:32:05.955Z,91.20
2017-09-28T08:34:33.633Z,91.70
2017-09-28T08:37:01.103Z,91.60
2017-09-28T08:39:28.640Z,92.00
2017-09-28T08:41:56.166Z,92.10
2017-09-28T08:44:24.414Z,92.20
2017-09-28T08:46:51.901Z,92.20
2017-09-28T08:49:19.634Z,92.00
2017-09-28T08:51:47.938Z,92.00
2017-09-28T08:54:16.170Z,92.00
2017-09-28T08:56:43.861Z,92.00
2017-09-28T08:59:12.141Z,91.10
2017-09-28T09:01:40.452Z,90.80
2017-09-28T09:04:08.404Z,91.00
2017-09-28T09:06:35.932Z,90.20
2017-09-28T09:09:03.427Z,89.30
2017-09-28T09:11:31.245Z,89.30
2017-09-28T09:13:58.830Z,89.60
2017-09-28T09:16:27.082Z,87.80
2017-09-28T09:18:54.998Z,87.80
2017-09-28T09:21:22.478Z,88.50
2017-09-28T09:23:50.033Z,88.10
2017-09-28T09:26:17.585Z,88.60
2017-09-28T09:28:45.058Z,87.70
2017-09-28T09:31:12.605Z,87.40
2017-09-28T09:33:40.129Z,85.90
2017-09-28T09:36:08.386Z,85.70
2017-09-28T09:38:36.642Z,87.80
2017-09-28T09:41:04.574Z,87.10
2017-09-28T09:43:32.071Z,88.00
2017-09-28T09:45:59.580Z,88.10
2017-09-28T09:48:27.216Z,87.20
2017-09-28T09:50:55.495Z,85.50
2017-09-28T09:53:23.726Z,84.80
2017-09-28T09:55:51.633Z,84.80
2017-09-28T09:58:20.044Z,84.10
2017-09-28T10:00:47.536Z,84.00
2017-09-28T10:03:15.325Z,83.80
2017-09-28T10:05:43.799Z,84.50
2017-09-28T10:08:16.203Z,84.40
2017-09-28T10:10:56.273Z,84.80
2017-09-28T10:13:26.676Z,84.80
2017-09-28T10:15:59.881Z,84.90
2017-09-28T10:18:27.376Z,84.90
2017-09-28T10:20:55.072Z,84.30
2017-09-28T10:23:22.576Z,83.90
2017-09-28T10:25:50.093Z,84.40
2017-09-28T10:28:18.401Z,83.30
2017-09-28T10:30:45.933Z,83.20
2017-09-28T10:33:14.407Z,84.20
2017-09-28T10:35:42.832Z,83.40
2017-09-28T10:38:10.605Z,83.40
2017-09-28T10:40:38.157Z,83.10
2017-09-28T10:43:06.478Z,82.50
2017-09-28T10:45:46.338Z,83.40
2017-09-28T10:48:14.614Z,83.40
2017-09-28T10:50:43.787Z,82.50
2017-09-28T10:53:11.286Z,82.40
2017-09-28T10:55:39.425Z,82.40
2017-09-28T10:58:06.898Z,82.10
2017-09-28T11:00:35.176Z,83.20
2017-09-28T11:03:03.430Z,83.00
2017-09-28T11:05:30.906Z,83.10
2017-09-28T11:07:59.221Z,81.10
2017-09-28T11:10:26.697Z,81.00
2017-09-28T11:12:54.214Z,82.00
2017-09-28T11:15:21.754Z,82.00
2017-09-28T11:17:50.066Z,81.20
2017-09-28T11:20:17.535Z,81.20
2017-09-28T11:22:45.247Z,82.40
2017-09-28T11:25:12.710Z,80.40
2017-09-28T11:27:41.196Z,81.30
2017-09-28T11:30:09.668Z,81.80
2017-09-28T11:32:37.951Z,80.40
2017-09-28T11:35:06.250Z,80.80
2017-09-28T11:37:33.916Z,80.10
2017-09-28T11:40:01.417Z,80.10
2017-09-28T11:42:29.428Z,80.00
2017-09-28T11:44:57.674Z,79.50
2017-09-28T11:47:25.163Z,79.50
2017-09-28T11:49:53.687Z,78.70
2017-09-28T11:52:21.181Z,78.70
2017-09-28T11:54:49.452Z,77.30
2017-09-28T11:57:17.118Z,77.20
2017-09-28T11:59:44.681Z,76.00
2017-09-28T12:02:12.267Z,77.20
2017-09-28T12:04:39.893Z,76.40
2017-09-28T12:07:07.378Z,75.50
2017-09-28T12:09:35.830Z,75.10
2017-09-28T12:12:03.533Z,75.10
2017-09-28T12:14:30.995Z,76.90
2017-09-28T12:16:58.473Z,77.60
2017-09-28T12:19:26.170Z,77.70
2017-09-28T12:21:54.478Z,76.90
2017-09-28T12:24:22.478Z,76.90
2017-09-28T12:26:50.096Z,77.30
2017-09-28T12:29:18.336Z,76.80
2017-09-28T12:31:45.895Z,76.80
2017-09-28T12:34:14.446Z,76.20
2017-09-28T12:36:41.978Z,75.40
2017-09-28T12:39:10.210Z,73.70
2017-09-28T12:41:37.915Z,73.60
2017-09-28T12:44:05.374Z,73.80
2017-09-28T12:46:32.875Z,73.50
2017-09-28T12:49:00.679Z,74.20
2017-09-28T12:51:28.934Z,74.90
2017-09-28T12:53:56.948Z,74.80
2017-09-28T12:56:34.558Z,75.30
2017-09-28T12:59:02.059Z,76.10
2017-09-28T13:01:29.540Z,76.90
2017-09-28T13:03:58.022Z,75.20
2017-09-28T13:06:26.846Z,75.30
2017-09-28T13:08:54.378Z,75.30
2017-09-28T13:11:23.227Z,76.10
2017-09-28T13:13:50.854Z,76.10
2017-09-28T13:16:18.328Z,75.10
2017-09-28T13:18:46.039Z,74.30
2017-09-28T13:21:14.312Z,76.20
2017-09-28T13:23:42.562Z,75.50
2017-09-28T13:26:20.968Z,75.30
2017-09-28T13:28:48.467Z,74.30
2017-09-28T13:31:16.751Z,72.90
2017-09-28T13:33:45.022Z,72.50
2017-09-28T13:36:13.240Z,71.40
2017-09-28T13:38:40.745Z,71.30
2017-09-28T13:41:09.273Z,72.60
2017-09-28T13:43:37.417Z,72.50
2017-09-28T13:46:04.895Z,73.60
2017-09-28T13:48:32.394Z,73.00
2017-09-28T13:50:59.867Z,74.10
2017-09-28T13:53:28.108Z,73.80
2017-09-28T13:55:55.859Z,73.50
2017-09-28T13:58:23.333Z,73.90
2017-09-28T14:00:50.814Z,72.70
2017-09-28T14:03:19.346Z,73.20
2017-09-28T14:05:46.905Z,73.10
2017-09-28T14:08:14.570Z,72.50
2017-09-28T14:10:42.113Z,73.90
2017-09-28T14:13:09.581Z,74.80
2017-09-28T14:15:37.121Z,73.90
2017-09-28T14:18:04.860Z,74.30
2017-09-28T14:20:32.340Z,75.30
2017-09-28T14:22:59.827Z,75.20
2017-09-28T14:25:27.997Z,75.30
2017-09-28T14:27:55.482Z,75.80
2017-09-28T14:30:22.978Z,76.10
2017-09-28T14:32:50.770Z,76.40
2017-09-28T14:35:18.362Z,76.20
2017-09-28T14:37:45.859Z,76.80
2017-09-28T14:40:14.339Z,76.70
2017-09-28T14:42:42.601Z,77.50
2017-09-28T14:45:10.080Z,77.30
2017-09-28T14:47:37.630Z,77.10
2017-09-28T14:50:05.902Z,77.90
2017-09-28T14:52:34.192Z,77.80
2017-09-28T14:55:02.792Z,77.70
2017-09-28T14:57:30.298Z,77.70
2017-09-28T14:59:57.777Z,78.60
2017-09-28T15:02:26.046Z,78.70
2017-09-28T15:04:54.296Z,79.20
2017-09-28T15:07:21.801Z,79.20
2017-09-28T15:09:50.147Z,79.10
2017-09-28T15:12:18.408Z,79.50
2017-09-28T15:14:45.911Z,79.40
2017-09-28T15:17:13.426Z,79.60
2017-09-28T15:19:40.929Z,80.20
2017-09-28T15:22:08.430Z,80.40
2017-09-28T15:24:36.166Z,80.10
2017-09-28T15:27:03.663Z,80.70
2017-09-28T15:29:31.177Z,80.90
2017-09-28T15:31:58.673Z,81.20
2017-09-28T15:34:26.180Z,81.90
2017-09-28T15:36:53.676Z,83.00
2017-09-28T15:39:21.418Z,82.60
2017-09-28T15:41:48.905Z,82.10
2017-09-28T15:44:16.384Z,81.10
2017-09-28T15:46:44.069Z,81.20
2017-09-28T15:49:13.170Z,80.60
2017-09-28T15:51:41.432Z,80.50
2017-09-28T15:54:09.927Z,80.80
2017-09-28T15:56:38.231Z,80.10
2017-09-28T15:59:05.739Z,80.00
2017-09-28T16:01:33.246Z,80.40
2017-09-28T16:04:00.758Z,80.60
2017-09-28T16:06:29.105Z,81.60
2017-09-28T16:08:58.153Z,81.60
2017-09-28T16:11:25.717Z,81.30
2017-09-28T16:13:53.222Z,80.90
2017-09-28T16:16:20.794Z,79.70
2017-09-28T16:18:48.282Z,79.00
2017-09-28T16:21:15.893Z,78.30
2017-09-28T16:23:43.376Z,78.30
2017-09-28T16:26:10.979Z,78.00
2017-09-28T16:28:38.460Z,77.80
2017-09-28T16:31:05.961Z,77.80
2017-09-28T16:33:33.590Z,78.00
2017-09-28T16:36:01.085Z,78.60
2017-09-28T16:38:29.353Z,79.40
2017-09-28T16:40:57.483Z,79.40
2017-09-28T16:43:24.975Z,79.90
2017-09-28T16:45:52.496Z,80.30
2017-09-28T16:48:20.068Z,80.50
2017-09-28T16:50:47.562Z,80.70
2017-09-28T16:53:15.875Z,80.80
2017-09-28T16:55:43.461Z,80.60
2017-09-28T16:58:11.047Z,81.30
2017-09-28T17:00:39.592Z,81.50
2017-09-28T17:03:07.426Z,82.40
2017-09-28T17:05:34.971Z,81.90
2017-09-28T17:08:03.227Z,82.00
2017-09-28T17:10:30.758Z,82.00
2017-09-28T17:12:58.242Z,82.20
2017-09-28T17:15:25.818Z,82.40
2017-09-28T17:17:53.364Z,82.50
2017-09-28T17:20:20.823Z,83.10
2017-09-28T17:22:49.108Z,82.60
2017-09-28T17:25:17.518Z,82.90
2017-09-28T17:27:45.062Z,82.90
2017-09-28T17:30:13.353Z,83.10
2017-09-28T17:32:41.295Z,83.00
2017-09-28T17:35:10.151Z,83.90
2017-09-28T17:37:38.107Z,83.90
2017-09-28T17:40:07.401Z,84.30
2017-09-28T17:42:34.905Z,84.60
2017-09-28T17:45:03.821Z,85.30
2017-09-28T17:47:31.823Z,85.30
2017-09-28T17:49:59.437Z,85.40
2017-09-28T17:52:27.038Z,85.50
2017-09-28T17:54:54.766Z,85.90
2017-09-28T17:57:22.276Z,86.10
2017-09-28T17:59:49.765Z,86.00
2017-09-28T18:02:18.246Z,87.10
2017-09-28T18:04:47.498Z,87.50
2017-09-28T18:07:15.033Z,87.30
2017-09-28T18:09:43.718Z,87.50
2017-09-28T18:12:11.328Z,87.70
2017-09-28T18:14:39.105Z,88.30
2017-09-28T18:17:06.611Z,88.50
2017-09-28T18:19:34.170Z,89.20
2017-09-28T18:22:01.682Z,89.60
2017-09-28T18:24:32.872Z,89.40
2017-09-28T18:27:00.358Z,89.70
2017-09-28T18:29:27.894Z,89.70
2017-09-28T18:31:55.392Z,89.80
2017-09-28T18:34:22.870Z,90.00
2017-09-28T18:36:51.407Z,90.00
2017-09-28T18:39:18.880Z,90.00
2017-09-28T18:41:46.399Z,90.10
2017-09-28T18:44:13.912Z,90.20
2017-09-28T18:46:42.168Z,90.50
2017-09-28T18:49:10.006Z,90.50
2017-09-28T18:51:37.507Z,90.70
2017-09-28T18:54:04.993Z,90.90
2017-09-28T18:56:33.330Z,91.30
2017-09-28T18:59:00.983Z,91.20
2017-09-28T19:01:38.912Z,91.30
2017-09-28T19:04:07.219Z,91.70
2017-09-28T19:06:34.723Z,91.70
2017-09-28T19:09:02.220Z,91.80
2017-09-28T19:11:30.527Z,92.00
2017-09-28T19:13:58.364Z,92.00
2017-09-28T19:16:26.616Z,92.00
2017-09-28T19:18:54.089Z,92.00
2017-09-28T19:21:22.376Z,92.20
2017-09-28T19:23:50.681Z,92.40
2017-09-28T19:26:18.442Z,92.40
2017-09-28T19:28:46.034Z,92.40
2017-09-28T19:31:13.540Z,92.40
2017-09-28T19:33:41.082Z,92.40
2017-09-28T19:36:09.367Z,92.40
2017-09-28T19:38:37.905Z,92.30
2017-09-28T19:41:05.463Z,92.30
2017-09-28T19:43:33.966Z,92.30
2017-09-28T19:46:02.359Z,92.40
2017-09-28T19:48:30.603Z,92.40
2017-09-28T19:51:00.240Z,92.40
2017-09-28T19:53:28.518Z,92.60
2017-09-28T19:55:57.010Z,92.70
2017-09-28T19:58:25.343Z,92.80
2017-09-28T20:00:52.918Z,92.80
2017-09-28T20:03:21.229Z,93.10
2017-09-28T20:05:49.557Z,93.20
2017-09-28T20:08:17.084Z,93.20
2017-09-28T20:10:44.668Z,93.30
2017-09-28T20:13:12.179Z,93.20
2017-09-28T20:15:40.558Z,93.40
2017-09-28T20:18:08.801Z,93.60
2017-09-28T20:20:36.326Z,93.60
2017-09-28T20:23:03.909Z,93.60
2017-09-28T20:25:31.543Z,93.60
2017-09-28T20:27:59.148Z,93.90
2017-09-28T20:30:26.639Z,93.70
2017-09-28T20:32:54.170Z,93.80
2017-09-28T20:35:21.737Z,93.90
2017-09-28T20:37:50.006Z,93.90
2017-09-28T20:40:18.289Z,94.00
2017-09-28T20:42:46.530Z,94.10
2017-09-28T20:45:14.027Z,94.10
2017-09-28T20:47:42.496Z,94.30
2017-09-28T20:50:10.766Z,94.70
2017-09-28T20:52:39.022Z,94.80
2017-09-28T20:55:06.547Z,94.60
2017-09-28T20:57:34.101Z,94.60
2017-09-28T21:00:01.722Z,94.60
2017-09-28T21:02:29.198Z,94.60
2017-09-28T21:04:57.495Z,94.60
2017-09-28T21:07:25.014Z,94.60
2017-09-28T21:09:52.488Z,94.60
2017-09-28T21:12:21.043Z,94.70
2017-09-28T21:14:48.596Z,94.70
2017-09-28T21:17:16.425Z,94.70
2017-09-28T21:19:44.815Z,94.80
2017-09-28T21:22:12.328Z,94.70
2017-09-28T21:24:40.576Z,94.80
2017-09-28T21:27:09.530Z,94.80
2017-09-28T21:29:37.056Z,94.90
2017-09-28T21:32:05.531Z,94.90
2017-09-28T21:34:33.801Z,94.90
2017-09-28T21:37:02.182Z,94.90
2017-09-28T21:39:31.167Z,94.90
2017-09-28T21:41:59.402Z,95.10
2017-09-28T21:44:26.918Z,94.90
2017-09-28T21:46:55.325Z,94.80
2017-09-28T21:49:22.801Z,94.80
2017-09-28T21:51:50.699Z,94.80
2017-09-28T21:54:28.144Z,94.80
2017-09-28T21:56:55.760Z,94.80
2017-09-28T21:59:23.218Z,94.80
2017-09-28T22:01:51.459Z,94.90
2017-09-28T22:04:19.020Z,94.80
2017-09-28T22:06:46.557Z,94.80
2017-09-28T22:09:14.283Z,94.70
2017-09-28T22:11:42.523Z,94.60
2017-09-28T22:14:10.013Z,94.60
2017-09-28T22:16:38.321Z,94.50
2017-09-28T22:19:05.835Z,94.40
2017-09-28T22:21:33.503Z,94.40
2017-09-28T22:24:02.042Z,94.60
2017-09-28T22:26:29.500Z,94.60
2017-09-28T22:28:56.965Z,94.60
2017-09-28T22:31:24.459Z,94.70
2017-09-28T22:33:52.864Z,94.70
2017-09-28T22:36:20.332Z,94.60
2017-09-28T22:38:48.784Z,94.70
2017-09-28T22:41:17.246Z,94.70
2017-09-28T22:43:45.537Z,94.70
2017-09-28T22:46:14.015Z,94.80
2017-09-28T22:48:42.281Z,94.90
2017-09-28T22:51:11.733Z,94.90
2017-09-28T22:53:39.367Z,94.90
2017-09-28T22:56:07.032Z,95.00
2017-09-28T22:58:35.302Z,95.20
2017-09-28T23:01:02.794Z,95.50
2017-09-28T23:03:30.302Z,95.20
2017-09-28T23:05:58.624Z,95.20
2017-09-28T23:08:26.089Z,95.40
2017-09-28T23:10:53.890Z,95.00
2017-09-28T23:13:22.029Z,94.90
2017-09-28T23:15:49.510Z,94.90
2017-09-28T23:18:17.037Z,94.80
2017-09-28T23:20:44.540Z,94.90
2017-09-28T23:23:12.231Z,94.80
2017-09-28T23:25:40.649Z,94.90
2017-09-28T23:28:08.198Z,94.90
2017-09-28T23:30:35.675Z,95.00
2017-09-28T23:33:03.186Z,95.20
2017-09-28T23:35:31.641Z,95.30
2017-09-28T23:37:59.933Z,95.30
2017-09-28T23:40:28.194Z,95.30
2017-09-28T23:42:56.517Z,95.40
2017-09-28T23:45:24.777Z,95.40
2017-09-28T23:47:52.613Z,95.60
2017-09-28T23:50:20.132Z,95.40
2017-09-28T23:52:47.644Z,95.70
2017-09-28T23:55:15.951Z,95.50
2017-09-28T23:57:43.681Z,95.50
